createdAt,value
2016-09-09T00:00:05.712Z,7.91
2016-09-09T00:01:05.702Z,8.04
2016-09-09T00:02:05.705Z,8.03
2016-09-09T00:03:05.683Z,8.04
2016-09-09T00:04:05.695Z,8.06
2016-09-09T00:05:05.663Z,8
2016-09-09T00:06:05.667Z,7.91
2016-09-09T00:07:05.697Z,7.99
2016-09-09T00:08:05.643Z,7.91
2016-09-09T00:09:05.637Z,7.95
2016-09-09T00:10:05.635Z,7.89
2016-09-09T00:11:05.653Z,7.81
2016-09-09T00:12:05.618Z,7.79
2016-09-09T00:13:05.627Z,7.89
2016-09-09T00:14:05.628Z,8.06
2016-09-09T00:15:05.735Z,8.02
2016-09-09T00:16:05.900Z,8.03
2016-09-09T00:17:05.596Z,8.1
2016-09-09T00:18:05.585Z,8.24
2016-09-09T00:19:05.587Z,8.39
2016-09-09T00:20:05.877Z,8.37
2016-09-09T00:21:05.542Z,8.32
2016-09-09T00:22:05.540Z,8.24
2016-09-09T00:23:05.535Z,8.39
2016-09-09T00:24:05.544Z,8.43
2016-09-09T00:25:05.528Z,8.34
2016-09-09T00:26:05.508Z,8.25
2016-09-09T00:27:05.494Z,8.03
2016-09-09T00:28:05.492Z,7.96
2016-09-09T00:29:05.797Z,8.18
2016-09-09T00:30:05.495Z,8.06
2016-09-09T00:31:05.463Z,7.91
2016-09-09T00:32:05.464Z,7.76
2016-09-09T00:33:05.480Z,7.74
2016-09-09T00:34:05.463Z,7.66
2016-09-09T00:35:05.464Z,7.73
2016-09-09T00:36:05.418Z,7.77
2016-09-09T00:37:05.430Z,7.77
2016-09-09T00:38:05.410Z,7.79
2016-09-09T00:39:05.413Z,7.84
2016-09-09T00:40:05.703Z,7.94
2016-09-09T00:41:05.417Z,8
2016-09-09T00:42:05.390Z,8.02
2016-09-09T00:43:05.391Z,8.02
2016-09-09T00:44:05.388Z,8
2016-09-09T00:45:05.362Z,8.13
2016-09-09T00:46:05.345Z,8.25
2016-09-09T00:47:05.368Z,8.45
2016-09-09T00:48:05.328Z,8.49
2016-09-09T00:49:05.321Z,8.55
2016-09-09T00:50:05.343Z,8.18
2016-09-09T00:51:05.326Z,7.88
2016-09-09T00:52:05.309Z,7.84
2016-09-09T00:53:05.314Z,7.82
2016-09-09T00:54:05.299Z,7.81
2016-09-09T00:55:05.280Z,7.91
2016-09-09T00:56:05.253Z,7.74
2016-09-09T00:57:05.261Z,7.54
2016-09-09T00:58:05.255Z,7.48
2016-09-09T00:59:05.259Z,7.41
2016-09-09T01:00:05.226Z,7.44
2016-09-09T01:01:05.238Z,7.41
2016-09-09T01:02:05.229Z,7.51
2016-09-09T01:03:05.236Z,7.52
2016-09-09T01:04:05.213Z,7.55
2016-09-09T01:05:05.205Z,7.69
2016-09-09T01:06:05.190Z,7.71
2016-09-09T01:07:05.211Z,7.71
2016-09-09T01:08:05.170Z,7.67
2016-09-09T01:09:05.151Z,7.55
2016-09-09T01:10:05.157Z,7.63
2016-09-09T01:11:05.151Z,7.6
2016-09-09T01:12:05.134Z,7.7
2016-09-09T01:13:05.155Z,7.73
2016-09-09T01:14:05.131Z,7.77
2016-09-09T01:15:05.153Z,8.02
2016-09-09T01:16:05.109Z,7.88
2016-09-09T01:17:05.086Z,8.03
2016-09-09T01:18:05.100Z,8
2016-09-09T01:19:05.087Z,7.88
2016-09-09T01:20:05.077Z,7.81
2016-09-09T01:21:05.062Z,7.89
2016-09-09T01:22:05.067Z,7.92
2016-09-09T01:23:05.055Z,7.89
2016-09-09T01:24:05.063Z,8
2016-09-09T01:25:05.026Z,7.91
2016-09-09T01:26:05.016Z,7.73
2016-09-09T01:27:05.022Z,7.58
2016-09-09T01:28:05.019Z,7.54
2016-09-09T01:29:04.999Z,7.54
2016-09-09T01:30:04.990Z,7.5
2016-09-09T01:31:04.994Z,7.52
2016-09-09T01:32:04.982Z,7.41
2016-09-09T01:33:04.958Z,7.42
2016-09-09T01:34:04.978Z,7.52
2016-09-09T01:35:04.942Z,7.71
2016-09-09T01:36:04.963Z,7.84
2016-09-09T01:37:04.937Z,8.06
2016-09-09T01:38:04.954Z,8.09
2016-09-09T01:39:04.932Z,8.03
2016-09-09T01:40:04.924Z,8.03
2016-09-09T01:41:04.914Z,7.73
2016-09-09T01:42:04.925Z,7.47
2016-09-09T01:43:04.884Z,7.32
2016-09-09T01:44:04.876Z,7.16
2016-09-09T01:45:04.884Z,7.24
2016-09-09T01:46:04.874Z,7.29
2016-09-09T01:47:04.867Z,7.5
2016-09-09T01:48:04.869Z,7.77
2016-09-09T01:49:04.872Z,7.99
2016-09-09T01:50:04.867Z,8.25
2016-09-09T01:51:04.816Z,8.4
2016-09-09T01:52:04.816Z,8.34
2016-09-09T01:53:04.813Z,8.4
2016-09-09T01:54:04.794Z,8.45
2016-09-09T01:55:04.811Z,8.43
2016-09-09T01:56:04.799Z,8.29
2016-09-09T01:57:04.804Z,8.2
2016-09-09T01:58:04.772Z,8.12
2016-09-09T01:59:04.751Z,8.14
2016-09-09T02:00:04.762Z,8.14
2016-09-09T02:01:04.766Z,8.02
2016-09-09T02:02:04.760Z,8.06
2016-09-09T02:03:04.735Z,8
2016-09-09T02:04:04.731Z,8
2016-09-09T02:05:04.728Z,7.84
2016-09-09T02:06:04.736Z,7.88
2016-09-09T02:07:04.711Z,8.12
2016-09-09T02:08:04.707Z,8.14
2016-09-09T02:09:04.689Z,7.84
2016-09-09T02:10:04.705Z,7.76
2016-09-09T02:11:04.670Z,7.67
2016-09-09T02:12:04.660Z,7.55
2016-09-09T02:13:04.655Z,7.34
2016-09-09T02:14:04.643Z,7.26
2016-09-09T02:15:04.991Z,7.26
2016-09-09T02:16:04.628Z,7.41
2016-09-09T02:17:04.628Z,7.51
2016-09-09T02:18:04.603Z,7.6
2016-09-09T02:19:04.621Z,7.73
2016-09-09T02:20:04.594Z,7.82
2016-09-09T02:21:04.577Z,7.89
2016-09-09T02:22:04.570Z,7.91
2016-09-09T02:23:04.579Z,7.81
2016-09-09T02:24:04.572Z,7.6
2016-09-09T02:25:04.557Z,7.57
2016-09-09T02:26:04.538Z,7.45
2016-09-09T02:27:04.548Z,7.44
2016-09-09T02:28:04.542Z,7.6
2016-09-09T02:29:04.550Z,7.79
2016-09-09T02:30:04.518Z,7.81
2016-09-09T02:31:04.494Z,7.74
2016-09-09T02:32:04.503Z,7.73
2016-09-09T02:33:04.491Z,7.51
2016-09-09T02:34:04.509Z,7.55
2016-09-09T02:35:04.489Z,7.42
2016-09-09T02:36:04.458Z,7.42
2016-09-09T02:37:04.453Z,7.67
2016-09-09T02:38:04.456Z,7.74
2016-09-09T02:39:04.470Z,7.91
2016-09-09T02:40:04.725Z,8
2016-09-09T02:41:04.420Z,7.99
2016-09-09T02:42:04.430Z,8.03
2016-09-09T02:43:04.405Z,8.09
2016-09-09T02:44:04.420Z,7.96
2016-09-09T02:45:04.415Z,8.03
2016-09-09T02:46:04.391Z,8.14
2016-09-09T02:47:04.364Z,8.34
2016-09-09T02:48:04.366Z,8.57
2016-09-09T02:49:04.349Z,8.71
2016-09-09T02:50:04.358Z,8.71
2016-09-09T02:51:04.347Z,8.86
2016-09-09T02:52:04.349Z,8.68
2016-09-09T02:53:04.325Z,8.46
2016-09-09T02:54:04.344Z,8.39
2016-09-09T02:55:04.317Z,8.31
2016-09-09T02:56:04.314Z,8.21
2016-09-09T02:57:04.317Z,7.81
2016-09-09T02:58:04.297Z,7.74
2016-09-09T02:59:04.296Z,7.57
2016-09-09T03:00:04.283Z,7.51
2016-09-09T03:01:04.293Z,7.52
2016-09-09T03:02:04.272Z,7.73
2016-09-09T03:03:04.263Z,7.76
2016-09-09T03:04:04.242Z,7.84
2016-09-09T03:05:04.240Z,8.06
2016-09-09T03:06:04.232Z,8.14
2016-09-09T03:07:04.221Z,8.2
2016-09-09T03:08:04.210Z,8.32
2016-09-09T03:09:04.214Z,8.28
2016-09-09T03:10:04.197Z,8.14
2016-09-09T03:11:04.199Z,8.03
2016-09-09T03:12:04.179Z,8.14
2016-09-09T03:13:04.196Z,8.37
2016-09-09T03:14:04.167Z,8.46
2016-09-09T03:15:04.167Z,8.34
2016-09-09T03:16:04.151Z,8.12
2016-09-09T03:17:04.146Z,8.1
2016-09-09T03:18:04.134Z,8.25
2016-09-09T03:19:04.155Z,8.25
2016-09-09T03:20:04.139Z,8.34
2016-09-09T03:21:04.116Z,8.63
2016-09-09T03:22:04.113Z,8.63
2016-09-09T03:23:04.098Z,8.7
2016-09-09T03:24:04.096Z,8.5
2016-09-09T03:25:04.076Z,8.25
2016-09-09T03:26:04.080Z,8.04
2016-09-09T03:27:04.075Z,7.99
2016-09-09T03:28:04.064Z,8.04
2016-09-09T03:29:04.053Z,8.04
2016-09-09T03:30:04.030Z,8.24
2016-09-09T03:31:04.041Z,8.39
2016-09-09T03:32:04.036Z,8.61
2016-09-09T03:33:04.006Z,8.52
2016-09-09T03:34:04.019Z,8.39
2016-09-09T03:35:04.023Z,8.29
2016-09-09T03:36:04.013Z,8.34
2016-09-09T03:37:03.991Z,8.24
2016-09-09T03:38:04.004Z,8.21
2016-09-09T03:39:03.988Z,8.09
2016-09-09T03:40:03.974Z,8.37
2016-09-09T03:41:03.967Z,8.36
2016-09-09T03:42:03.936Z,8.25
2016-09-09T03:43:03.969Z,8.13
2016-09-09T03:44:03.940Z,8.14
2016-09-09T03:45:03.923Z,8.4
2016-09-09T03:46:03.906Z,8.34
2016-09-09T03:47:03.920Z,7.96
2016-09-09T03:48:03.915Z,7.63
2016-09-09T03:49:03.890Z,7.52
2016-09-09T03:50:03.891Z,7.41
2016-09-09T03:51:03.884Z,7.42
2016-09-09T03:52:03.875Z,7.51
2016-09-09T03:53:03.858Z,7.84
2016-09-09T03:54:03.867Z,8.12
2016-09-09T03:55:03.844Z,8.45
2016-09-09T03:56:03.859Z,8.63
2016-09-09T03:57:03.850Z,8.64
2016-09-09T03:58:03.844Z,8.76
2016-09-09T03:59:03.843Z,8.82
2016-09-09T04:00:03.836Z,8.89
2016-09-09T04:01:03.808Z,8.8
2016-09-09T04:02:03.793Z,8.68
2016-09-09T04:03:03.798Z,8.09
2016-09-09T04:04:03.820Z,7.73
2016-09-09T04:05:03.785Z,7.5
2016-09-09T04:06:03.770Z,7.57
2016-09-09T04:07:03.759Z,7.57
2016-09-09T04:08:03.760Z,7.47
2016-09-09T04:09:03.731Z,7.67
2016-09-09T04:10:03.742Z,7.74
2016-09-09T04:11:03.727Z,7.66
2016-09-09T04:12:03.712Z,7.62
2016-09-09T04:13:03.999Z,7.63
2016-09-09T04:14:03.708Z,7.76
2016-09-09T04:15:03.700Z,7.74
2016-09-09T04:16:03.688Z,7.77
2016-09-09T04:17:03.664Z,7.69
2016-09-09T04:18:03.677Z,7.63
2016-09-09T04:19:03.659Z,7.58
2016-09-09T04:20:03.655Z,7.55
2016-09-09T04:21:03.627Z,7.5
2016-09-09T04:22:03.648Z,7.44
2016-09-09T04:23:03.629Z,7.45
2016-09-09T04:24:03.623Z,7.39
2016-09-09T04:25:03.626Z,7.51
2016-09-09T04:26:03.619Z,7.63
2016-09-09T04:27:03.592Z,7.73
2016-09-09T04:28:03.580Z,7.7
2016-09-09T04:29:03.577Z,7.66
2016-09-09T04:30:03.553Z,7.6
2016-09-09T04:31:03.567Z,7.57
2016-09-09T04:32:03.546Z,7.52
2016-09-09T04:33:03.543Z,7.5
2016-09-09T04:34:03.536Z,7.55
2016-09-09T04:35:03.514Z,7.54
2016-09-09T04:36:03.505Z,7.58
2016-09-09T04:37:03.507Z,7.55
2016-09-09T04:38:03.494Z,7.62
2016-09-09T04:39:03.492Z,7.77
2016-09-09T04:40:03.487Z,7.84
2016-09-09T04:41:03.482Z,7.82
2016-09-09T04:42:03.457Z,7.76
2016-09-09T04:43:03.459Z,7.7
2016-09-09T04:44:03.436Z,7.66
2016-09-09T04:45:03.431Z,7.55
2016-09-09T04:46:03.448Z,7.51
2016-09-09T04:47:03.417Z,7.62
2016-09-09T04:48:03.417Z,7.32
2016-09-09T04:49:03.405Z,7.18
2016-09-09T04:50:03.401Z,7.15
2016-09-09T04:51:03.400Z,7.14
2016-09-09T04:52:03.386Z,7.18
2016-09-09T04:53:03.369Z,7.26
2016-09-09T04:54:03.373Z,7.3
2016-09-09T04:55:03.358Z,7.32
2016-09-09T04:56:03.335Z,7.45
2016-09-09T04:57:03.334Z,7.42
2016-09-09T04:58:03.326Z,7.33
2016-09-09T04:59:03.300Z,7.08
2016-09-09T05:00:03.297Z,6.97
2016-09-09T05:01:03.297Z,6.79
2016-09-09T05:02:03.312Z,6.86
2016-09-09T05:03:03.287Z,6.89
2016-09-09T05:04:03.280Z,7.05
2016-09-09T05:05:03.264Z,7.09
2016-09-09T05:06:03.274Z,7.11
2016-09-09T05:07:03.255Z,7.16
2016-09-09T05:08:03.245Z,7.27
2016-09-09T05:09:03.221Z,7.29
2016-09-09T05:10:03.241Z,7.3
2016-09-09T05:11:03.233Z,7.27
2016-09-09T05:12:03.199Z,7.27
2016-09-09T05:13:03.201Z,7.27
2016-09-09T05:14:03.189Z,7.29
2016-09-09T05:15:03.176Z,7.3
2016-09-09T05:16:03.224Z,7.29
2016-09-09T05:17:03.164Z,7.41
2016-09-09T05:18:03.160Z,7.51
2016-09-09T05:19:03.153Z,7.91
2016-09-09T05:20:03.157Z,7.92
2016-09-09T05:21:03.134Z,7.91
2016-09-09T05:22:03.122Z,8.03
2016-09-09T05:23:03.125Z,7.94
2016-09-09T05:24:03.089Z,7.99
2016-09-09T05:25:03.092Z,8.14
2016-09-09T05:26:03.079Z,8.34
2016-09-09T05:27:03.084Z,8.36
2016-09-09T05:28:03.078Z,8.42
2016-09-09T05:29:03.080Z,8.52
2016-09-09T05:30:03.056Z,8.52
2016-09-09T05:31:03.032Z,8.31
2016-09-09T05:32:03.051Z,8.28
2016-09-09T05:33:03.029Z,8.4
2016-09-09T05:34:03.024Z,8.5
2016-09-09T05:35:03.020Z,8.67
2016-09-09T05:36:03.026Z,8.83
2016-09-09T05:37:02.993Z,8.73
2016-09-09T05:38:02.988Z,8.61
2016-09-09T05:39:03.005Z,8.52
2016-09-09T05:40:02.985Z,8.64
2016-09-09T05:41:02.953Z,8.76
2016-09-09T05:42:02.963Z,8.89
2016-09-09T05:43:02.943Z,8.71
2016-09-09T05:44:02.930Z,8.82
2016-09-09T05:45:02.959Z,8.79
2016-09-09T05:46:02.930Z,8.6
2016-09-09T05:47:02.922Z,8.43
2016-09-09T05:48:02.900Z,8.39
2016-09-09T05:49:02.906Z,8.42
2016-09-09T05:50:02.906Z,8.03
2016-09-09T05:51:02.907Z,7.94
2016-09-09T05:52:02.881Z,8
2016-09-09T05:53:02.891Z,7.94
2016-09-09T05:54:02.859Z,7.74
2016-09-09T05:55:02.869Z,7.81
2016-09-09T05:56:02.858Z,8.03
2016-09-09T05:57:02.845Z,7.99
2016-09-09T05:58:02.843Z,8.04
2016-09-09T05:59:02.849Z,8.13
2016-09-09T06:00:02.816Z,8.14
2016-09-09T06:01:03.144Z,8.04
2016-09-09T06:02:02.799Z,7.99
2016-09-09T06:03:02.810Z,8.18
2016-09-09T06:04:02.789Z,8.31
2016-09-09T06:05:02.803Z,8.54
2016-09-09T06:06:02.798Z,8.55
2016-09-09T06:07:02.792Z,8.58
2016-09-09T06:08:02.749Z,8.58
2016-09-09T06:09:02.753Z,8.49
2016-09-09T06:10:02.753Z,8.36
2016-09-09T06:11:02.747Z,8.07
2016-09-09T06:12:02.727Z,7.71
2016-09-09T06:13:02.714Z,7.7
2016-09-09T06:14:02.716Z,8.03
2016-09-09T06:15:02.687Z,7.94
2016-09-09T06:16:02.694Z,7.84
2016-09-09T06:17:02.672Z,8.06
2016-09-09T06:18:02.663Z,8.03
2016-09-09T06:19:02.663Z,8.09
2016-09-09T06:20:02.648Z,8.22
2016-09-09T06:21:03.078Z,8.42
2016-09-09T06:22:02.651Z,8.49
2016-09-09T06:23:02.660Z,8.43
2016-09-09T06:24:02.617Z,8.39
2016-09-09T06:25:02.622Z,8.45
2016-09-09T06:26:02.614Z,8.29
2016-09-09T06:27:02.609Z,8.17
2016-09-09T06:28:02.589Z,7.91
2016-09-09T06:29:02.586Z,8.17
2016-09-09T06:30:02.567Z,8.29
2016-09-09T06:31:02.584Z,8.79
2016-09-09T06:32:02.590Z,8.76
2016-09-09T06:33:02.561Z,8.42
2016-09-09T06:34:02.562Z,8.12
2016-09-09T06:35:02.553Z,8.17
2016-09-09T06:36:02.555Z,8.03
2016-09-09T06:37:02.549Z,8.03
2016-09-09T06:38:02.538Z,8.28
2016-09-09T06:39:02.519Z,8.55
2016-09-09T06:40:02.526Z,8.73
2016-09-09T06:41:02.512Z,8.73
2016-09-09T06:42:02.493Z,8.78
2016-09-09T06:43:02.467Z,8.4
2016-09-09T06:44:02.459Z,8.4
2016-09-09T06:45:02.450Z,8.06
2016-09-09T06:46:02.475Z,7.95
2016-09-09T06:47:02.439Z,7.85
2016-09-09T06:48:02.434Z,7.52
2016-09-09T06:49:02.742Z,7.6
2016-09-09T06:50:02.429Z,7.76
2016-09-09T06:51:02.431Z,8
2016-09-09T06:52:02.418Z,8.27
2016-09-09T06:53:02.417Z,8.27
2016-09-09T06:54:02.403Z,7.95
2016-09-09T06:55:02.392Z,7.81
2016-09-09T06:56:02.366Z,7.74
2016-09-09T06:57:02.357Z,7.86
2016-09-09T06:58:02.353Z,7.94
2016-09-09T06:59:02.363Z,8.03
2016-09-09T07:00:02.366Z,7.88
2016-09-09T07:01:02.359Z,7.95
2016-09-09T07:02:02.341Z,8.2
2016-09-09T07:03:02.323Z,8.36
2016-09-09T07:04:02.305Z,8.5
2016-09-09T07:05:02.311Z,8.78
2016-09-09T07:06:02.300Z,8.89
2016-09-09T07:07:02.297Z,8.4
2016-09-09T07:08:02.278Z,8.07
2016-09-09T07:09:02.287Z,8.04
2016-09-09T07:10:02.276Z,8.12
2016-09-09T07:11:02.262Z,8.34
2016-09-09T07:12:02.265Z,8.5
2016-09-09T07:13:02.238Z,8.76
2016-09-09T07:14:02.235Z,8.97
2016-09-09T07:15:02.231Z,9.04
2016-09-09T07:16:02.262Z,9.13
2016-09-09T07:17:02.494Z,8.88
2016-09-09T07:18:02.203Z,9.2
2016-09-09T07:19:02.197Z,9.44
2016-09-09T07:20:02.181Z,9.55
2016-09-09T07:21:02.176Z,9.78
2016-09-09T07:22:02.176Z,9.7
2016-09-09T07:23:02.161Z,9.48
2016-09-09T07:24:02.177Z,9.35
2016-09-09T07:25:02.136Z,9.22
2016-09-09T07:26:02.136Z,9.31
2016-09-09T07:27:02.155Z,9.48
2016-09-09T07:28:02.146Z,9.45
2016-09-09T07:29:02.424Z,9.62
2016-09-09T07:30:02.108Z,9.3
2016-09-09T07:31:02.090Z,9.35
2016-09-09T07:32:02.095Z,9.55
2016-09-09T07:33:02.102Z,9.63
2016-09-09T07:34:02.070Z,9.8
2016-09-09T07:35:02.082Z,10.07
2016-09-09T07:36:02.062Z,10.13
2016-09-09T07:37:02.061Z,10.22
2016-09-09T07:38:02.053Z,10.6
2016-09-09T07:39:02.045Z,11.12
2016-09-09T07:40:02.050Z,11.13
2016-09-09T07:41:02.037Z,11.06
2016-09-09T07:42:02.028Z,10.99
2016-09-09T07:43:02.013Z,10.81
2016-09-09T07:44:02.008Z,10.83
2016-09-09T07:45:01.996Z,10.86
2016-09-09T07:46:01.979Z,10.68
2016-09-09T07:47:01.991Z,10.66
2016-09-09T07:48:02.289Z,10.68
2016-09-09T07:49:01.973Z,10.54
2016-09-09T07:50:01.964Z,10.62
2016-09-09T07:51:01.947Z,10.68
2016-09-09T07:52:01.958Z,10.6
2016-09-09T07:53:01.923Z,10.55
2016-09-09T07:54:01.950Z,10.47
2016-09-09T07:55:02.236Z,10.63
2016-09-09T07:56:01.916Z,10.65
2016-09-09T07:57:01.925Z,10.83
2016-09-09T07:58:01.901Z,10.8
2016-09-09T07:59:01.909Z,10.75
2016-09-09T08:00:01.908Z,10.54
2016-09-09T08:01:01.898Z,10.32
2016-09-09T08:02:01.873Z,10.34
2016-09-09T08:03:01.876Z,10.22
2016-09-09T08:04:01.871Z,10.47
2016-09-09T08:05:01.853Z,11.2
2016-09-09T08:06:01.851Z,11.06
2016-09-09T08:07:01.856Z,10.84
2016-09-09T08:08:01.828Z,10.54
2016-09-09T08:09:01.828Z,10.32
2016-09-09T08:10:01.812Z,10.49
2016-09-09T08:11:01.819Z,10.87
2016-09-09T08:12:01.800Z,11.27
2016-09-09T08:13:01.795Z,11.01
2016-09-09T08:14:01.792Z,11.11
2016-09-09T08:15:01.772Z,11.62
2016-09-09T08:16:01.782Z,12.18
2016-09-09T08:17:01.773Z,12.87
2016-09-09T08:18:01.772Z,13.32
2016-09-09T08:19:01.747Z,13.07
2016-09-09T08:20:01.747Z,13.41
2016-09-09T08:21:01.737Z,13.66
2016-09-09T08:22:01.742Z,13.44
2016-09-09T08:23:01.756Z,13.04
2016-09-09T08:24:01.733Z,13.59
2016-09-09T08:25:01.718Z,13.62
2016-09-09T08:26:01.703Z,14.13
2016-09-09T08:27:01.681Z,14.59
2016-09-09T08:28:01.693Z,14.79
2016-09-09T08:29:01.671Z,14.3
2016-09-09T08:30:01.677Z,14.24
2016-09-09T08:31:01.689Z,13.69
2016-09-09T08:32:01.688Z,13.27
2016-09-09T08:33:01.660Z,12.23
2016-09-09T08:34:01.646Z,11.6
2016-09-09T08:35:01.662Z,11.13
2016-09-09T08:36:01.653Z,10.88
2016-09-09T08:37:01.649Z,10.95
2016-09-09T08:38:01.625Z,11.03
2016-09-09T08:39:01.637Z,11.13
2016-09-09T08:40:01.642Z,11.26
2016-09-09T08:41:01.603Z,11.08
2016-09-09T08:42:01.625Z,10.93
2016-09-09T08:43:01.598Z,10.87
2016-09-09T08:44:01.593Z,10.86
2016-09-09T08:45:01.605Z,10.66
2016-09-09T08:46:01.586Z,10.34
2016-09-09T08:47:01.571Z,10.18
2016-09-09T08:48:01.589Z,10.09
2016-09-09T08:49:01.577Z,10.02
2016-09-09T08:50:01.553Z,10.06
2016-09-09T08:51:01.547Z,10.04
2016-09-09T08:52:01.541Z,9.99
2016-09-09T08:53:01.540Z,10.02
2016-09-09T08:54:01.531Z,10.09
2016-09-09T08:55:01.518Z,10.04
2016-09-09T08:56:01.510Z,10.02
2016-09-09T08:57:01.495Z,9.95
2016-09-09T08:58:01.494Z,9.88
2016-09-09T08:59:01.506Z,9.73
2016-09-09T09:00:01.467Z,9.67
2016-09-09T09:01:01.491Z,9.96
2016-09-09T09:02:01.464Z,10.26
2016-09-09T09:03:01.462Z,10.42
2016-09-09T09:04:01.456Z,10.32
2016-09-09T09:05:01.441Z,10.24
2016-09-09T09:06:01.417Z,10.11
2016-09-09T09:07:01.438Z,10.02
2016-09-09T09:08:01.430Z,10.02
2016-09-09T09:09:01.418Z,10.14
2016-09-09T09:10:01.408Z,10.25
2016-09-09T09:11:01.398Z,10.44
2016-09-09T09:12:01.387Z,10.47
2016-09-09T09:13:01.394Z,10.43
2016-09-09T09:14:01.393Z,10.31
2016-09-09T09:15:01.373Z,10.32
2016-09-09T09:16:01.343Z,10.49
2016-09-09T09:17:01.372Z,10.6
2016-09-09T09:18:01.355Z,10.65
2016-09-09T09:19:01.351Z,10.86
2016-09-09T09:20:01.349Z,10.73
2016-09-09T09:21:01.322Z,10.66
2016-09-09T09:22:01.316Z,10.68
2016-09-09T09:23:01.323Z,10.47
2016-09-09T09:24:01.294Z,10.32
2016-09-09T09:25:01.297Z,10.29
2016-09-09T09:26:01.300Z,10.04
2016-09-09T09:27:01.294Z,10.02
2016-09-09T09:28:01.279Z,10.02
2016-09-09T09:29:01.288Z,10.13
2016-09-09T09:30:01.272Z,10.36
2016-09-09T09:31:01.261Z,10.62
2016-09-09T09:32:01.262Z,11.26
2016-09-09T09:33:01.246Z,11.13
2016-09-09T09:34:01.233Z,10.99
2016-09-09T09:35:01.237Z,11.09
2016-09-09T09:36:01.232Z,11.2
2016-09-09T09:37:01.224Z,11.12
2016-09-09T09:38:01.190Z,11.44
2016-09-09T09:39:01.197Z,11.78
2016-09-09T09:40:01.202Z,12.67
2016-09-09T09:41:01.199Z,13.29
2016-09-09T09:42:01.183Z,13.68
2016-09-09T09:43:01.178Z,14.13
2016-09-09T09:44:01.183Z,14.69
2016-09-09T09:45:01.168Z,15.18
2016-09-09T09:46:01.153Z,15.78
2016-09-09T09:47:01.160Z,15.78
2016-09-09T09:48:01.134Z,15.18
2016-09-09T09:49:01.154Z,14.44
2016-09-09T09:50:01.129Z,13.91
2016-09-09T09:51:01.130Z,13.55
2016-09-09T09:52:01.147Z,13.17
2016-09-09T09:53:01.111Z,12.62
2016-09-09T09:54:01.099Z,12.36
2016-09-09T09:55:01.108Z,12.11
2016-09-09T09:56:01.094Z,12.18
2016-09-09T09:57:01.072Z,12.44
2016-09-09T09:58:01.094Z,12.26
2016-09-09T09:59:01.080Z,12.15
2016-09-09T10:00:01.092Z,12.29
2016-09-09T10:01:01.069Z,12.26
2016-09-09T10:02:01.072Z,12.11
2016-09-09T10:03:01.058Z,11.98
2016-09-09T10:04:01.050Z,12.03
2016-09-09T10:05:01.040Z,12.05
2016-09-09T10:06:01.056Z,12.03
2016-09-09T10:07:01.015Z,11.84
2016-09-09T10:08:01.010Z,11.69
2016-09-09T10:09:01.024Z,11.78
2016-09-09T10:10:01.019Z,11.94
2016-09-09T10:11:01.003Z,12.55
2016-09-09T10:12:01.013Z,13.38
2016-09-09T10:13:00.995Z,13.36
2016-09-09T10:14:01.000Z,14.21
2016-09-09T10:15:00.980Z,14.26
2016-09-09T10:16:00.968Z,13.63
2016-09-09T10:17:01.019Z,13.57
2016-09-09T10:18:00.982Z,14.2
2016-09-09T10:19:00.964Z,14.8
2016-09-09T10:20:00.956Z,15.46
2016-09-09T10:21:00.931Z,15.4
2016-09-09T10:22:00.939Z,14.71
2016-09-09T10:23:00.937Z,14.2
2016-09-09T10:24:00.940Z,13.07
2016-09-09T10:25:00.907Z,12.56
2016-09-09T10:26:00.901Z,12.3
2016-09-09T10:27:00.914Z,12.11
2016-09-09T10:28:00.886Z,11.94
2016-09-09T10:29:00.902Z,11.6
2016-09-09T10:30:00.905Z,12.16
2016-09-09T10:31:00.877Z,12.76
2016-09-09T10:32:00.890Z,12.99
2016-09-09T10:33:00.864Z,13.25
2016-09-09T10:34:00.865Z,13.24
2016-09-09T10:35:00.864Z,13.24
2016-09-09T10:36:00.858Z,13.14
2016-09-09T10:37:00.845Z,13.27
2016-09-09T10:38:00.830Z,13.32
2016-09-09T10:39:00.855Z,13.09
2016-09-09T10:40:00.833Z,12.94
2016-09-09T10:41:00.822Z,12.8
2016-09-09T10:42:00.812Z,12.55
2016-09-09T10:43:00.823Z,12.41
2016-09-09T10:44:00.810Z,12.63
2016-09-09T10:45:00.804Z,12.74
2016-09-09T10:46:00.793Z,12.84
2016-09-09T10:47:00.789Z,13.43
2016-09-09T10:48:00.770Z,14.49
2016-09-09T10:49:00.773Z,14.63
2016-09-09T10:50:00.769Z,14.38
2016-09-09T10:51:00.756Z,14.44
2016-09-09T10:52:00.736Z,14.95
2016-09-09T10:53:00.769Z,15.28
2016-09-09T10:54:00.733Z,15.2
2016-09-09T10:55:00.758Z,15.28
2016-09-09T10:56:00.713Z,15.78
2016-09-09T10:57:00.747Z,15.71
2016-09-09T10:58:00.713Z,15.68
2016-09-09T10:59:00.723Z,15.38
2016-09-09T11:00:00.713Z,15.77
2016-09-09T11:01:00.724Z,15.48
2016-09-09T11:02:00.690Z,15.34
2016-09-09T11:03:00.699Z,14.93
2016-09-09T11:04:00.677Z,14.82
2016-09-09T11:05:00.684Z,14.66
2016-09-09T11:06:00.700Z,14.45
2016-09-09T11:07:00.682Z,14.21
2016-09-09T11:08:00.684Z,13.96
2016-09-09T11:09:00.676Z,13.86
2016-09-09T11:10:00.680Z,13.91
2016-09-09T11:11:00.641Z,14.34
2016-09-09T11:12:00.662Z,14.52
2016-09-09T11:13:00.647Z,14.75
2016-09-09T11:14:00.623Z,15.19
2016-09-09T11:15:00.628Z,15.8
2016-09-09T11:16:00.650Z,15.73
2016-09-09T11:17:00.901Z,15.13
2016-09-09T11:18:00.626Z,14.45
2016-09-09T11:19:00.631Z,13.84
2016-09-09T11:20:00.626Z,13.66
2016-09-09T11:21:00.626Z,13.38
2016-09-09T11:22:00.594Z,13.16
2016-09-09T11:23:00.594Z,12.92
2016-09-09T11:24:00.612Z,12.62
2016-09-09T11:25:00.894Z,12.56
2016-09-09T11:26:00.585Z,12.43
2016-09-09T11:27:00.579Z,12.37
2016-09-09T11:28:00.565Z,11.88
2016-09-09T11:29:00.564Z,11.78
2016-09-09T11:30:00.574Z,11.67
2016-09-09T11:31:00.570Z,11.77
2016-09-09T11:32:00.555Z,11.74
2016-09-09T11:33:00.561Z,11.77
2016-09-09T11:34:00.532Z,11.69
2016-09-09T11:35:00.554Z,11.69
2016-09-09T11:36:00.540Z,11.81
2016-09-09T11:37:00.525Z,12.08
2016-09-09T11:38:00.531Z,12.59
2016-09-09T11:39:00.513Z,12.88
2016-09-09T11:40:00.494Z,12.91
2016-09-09T11:41:00.495Z,12.76
2016-09-09T11:42:00.493Z,12.71
2016-09-09T11:43:00.478Z,12.52
2016-09-09T11:44:00.493Z,12.41
2016-09-09T11:45:00.457Z,12.41
2016-09-09T11:46:00.456Z,12.41
2016-09-09T11:47:00.459Z,12.55
2016-09-09T11:48:00.452Z,12.52
2016-09-09T11:49:00.430Z,12.55
2016-09-09T11:50:00.444Z,12.59
2016-09-09T11:51:00.435Z,12.41
2016-09-09T11:52:00.425Z,12.36
2016-09-09T11:53:00.416Z,12.16
2016-09-09T11:54:00.399Z,12.29
2016-09-09T11:55:00.404Z,12.44
2016-09-09T11:56:00.413Z,12.26
2016-09-09T11:57:00.403Z,12.13
2016-09-09T11:58:00.369Z,12.07
2016-09-09T11:59:00.385Z,12.04
2016-09-09T12:00:00.388Z,11.96
2016-09-09T12:01:00.684Z,12.18
2016-09-09T12:02:00.355Z,12.26
2016-09-09T12:03:00.357Z,12.3
2016-09-09T12:04:00.354Z,12.54
2016-09-09T12:05:00.342Z,12.61
2016-09-09T12:06:00.353Z,12.41
2016-09-09T12:07:00.347Z,12.04
2016-09-09T12:08:00.316Z,12.05
2016-09-09T12:09:00.327Z,12.03
2016-09-09T12:10:00.316Z,12.01
2016-09-09T12:11:00.314Z,12.13
2016-09-09T12:12:00.304Z,12.38
2016-09-09T12:13:00.307Z,12.48
2016-09-09T12:14:00.277Z,12.38
2016-09-09T12:15:00.292Z,12.92
2016-09-09T12:16:00.282Z,13.16
2016-09-09T12:17:00.301Z,13.83
2016-09-09T12:18:00.294Z,14.08
2016-09-09T12:19:00.244Z,13.61
2016-09-09T12:20:00.249Z,13.17
2016-09-09T12:21:00.247Z,12.73
2016-09-09T12:22:00.222Z,12.55
2016-09-09T12:23:00.238Z,12.11
2016-09-09T12:24:00.245Z,11.93
2016-09-09T12:25:00.238Z,11.93
2016-09-09T12:26:00.234Z,12.03
2016-09-09T12:27:00.211Z,12.15
2016-09-09T12:28:00.200Z,12.26
2016-09-09T12:29:00.501Z,12.43
2016-09-09T12:30:00.203Z,12.4
2016-09-09T12:31:00.182Z,12.59
2016-09-09T12:32:00.196Z,12.62
2016-09-09T12:33:00.178Z,12.79
2016-09-09T12:34:00.169Z,12.73
2016-09-09T12:35:00.150Z,12.59
2016-09-09T12:36:00.162Z,12.38
2016-09-09T12:37:00.154Z,12.3
2016-09-09T12:38:00.151Z,12.05
2016-09-09T12:39:00.154Z,11.78
2016-09-09T12:40:00.150Z,11.67
2016-09-09T12:41:00.122Z,11.6
2016-09-09T12:42:00.130Z,11.54
2016-09-09T12:43:00.118Z,11.53
2016-09-09T12:44:00.114Z,11.49
2016-09-09T12:45:00.113Z,11.35
2016-09-09T12:46:00.101Z,11.31
2016-09-09T12:47:00.097Z,10.94
2016-09-09T12:48:00.084Z,11.24
2016-09-09T12:49:00.064Z,11.57
2016-09-09T12:50:00.081Z,11.74
2016-09-09T12:51:00.064Z,11.81
2016-09-09T12:52:00.037Z,11.85
2016-09-09T12:53:00.027Z,12.15
2016-09-09T12:54:00.045Z,12.16
2016-09-09T12:55:00.038Z,12.21
2016-09-09T12:56:00.031Z,12.3
2016-09-09T12:57:00.011Z,12.3
2016-09-09T12:58:00.021Z,12.38
2016-09-09T12:59:00.007Z,12.48
2016-09-09T13:00:00.011Z,12.58
2016-09-09T13:01:00.003Z,12.69
2016-09-09T13:02:00.011Z,12.56
2016-09-09T13:03:00.000Z,12.61
2016-09-09T13:03:59.977Z,12.69
2016-09-09T13:04:59.994Z,12.13
2016-09-09T13:05:59.967Z,12.37
2016-09-09T13:06:59.962Z,12.59
2016-09-09T13:07:59.953Z,12.84
2016-09-09T13:08:59.957Z,12.89
2016-09-09T13:09:59.945Z,13.03